createdAt,value
2022-09-28T00:01:15.533Z,93668.06
2022-09-28T00:03:42.422Z,93663.88
2022-09-28T00:06:12.474Z,93662.22
2022-09-28T00:08:39.348Z,93653.13
2022-09-28T00:11:07.449Z,93653.59
2022-09-28T00:13:35.208Z,93650.56
2022-09-28T00:16:11.716Z,93642.72
2022-09-28T00:18:38.306Z,93637.44
2022-09-28T00:21:08.751Z,93627.00
2022-09-28T00:23:56.263Z,93628.63
2022-09-28T00:26:23.189Z,93622.25
2022-09-28T00:28:54.695Z,93620.16
2022-09-28T00:31:22.217Z,93624.19
2022-09-28T00:33:58.092Z,93613.75
2022-09-28T00:36:26.992Z,93619.09
2022-09-28T00:38:57.708Z,93612.13
2022-09-28T00:41:26.028Z,93625.59
2022-09-28T00:43:54.100Z,93616.47
2022-09-28T00:46:34.930Z,93619.00
2022-09-28T00:49:08.793Z,93615.03
2022-09-28T00:51:37.807Z,93609.28
2022-09-28T00:54:07.680Z,93603.78
2022-09-28T00:56:40.282Z,93595.88
2022-09-28T00:59:08.750Z,93592.34
2022-09-28T01:01:36.013Z,93576.47
2022-09-28T01:04:04.836Z,93573.38
2022-09-28T01:06:35.981Z,93575.66
2022-09-28T01:09:07.426Z,93572.59
2022-09-28T01:11:38.393Z,93570.59
2022-09-28T01:14:09.271Z,93566.38
2022-09-28T01:16:54.648Z,93559.75
2022-09-28T01:19:46.609Z,93554.44
2022-09-28T01:22:23.749Z,93554.09
2022-09-28T01:24:59.680Z,93545.44
2022-09-28T01:27:39.456Z,93538.34
2022-09-28T01:30:07.858Z,93531.09
2022-09-28T01:33:09.572Z,93522.56
2022-09-28T01:35:51.495Z,93520.41
2022-09-28T01:38:37.000Z,93507.91
2022-09-28T01:41:05.302Z,93498.66
2022-09-28T01:43:40.834Z,93495.44
2022-09-28T01:46:19.312Z,93484.22
2022-09-28T01:48:50.341Z,93485.81
2022-09-28T01:51:30.579Z,93476.16
2022-09-28T01:54:05.755Z,93472.69
2022-09-28T01:56:52.065Z,93471.34
2022-09-28T01:59:24.773Z,93462.25
2022-09-28T02:01:57.445Z,93450.88
2022-09-28T02:04:32.560Z,93441.97
2022-09-28T02:07:07.603Z,93428.88
2022-09-28T02:09:40.407Z,93423.06
2022-09-28T02:12:15.678Z,93416.84
2022-09-28T02:14:45.538Z,93406.63
2022-09-28T02:17:12.796Z,93411.97
2022-09-28T02:19:41.248Z,93407.47
2022-09-28T02:22:23.844Z,93400.03
2022-09-28T02:25:11.356Z,93394.56
2022-09-28T02:27:50.655Z,93393.13
2022-09-28T02:30:18.234Z,93394.56
2022-09-28T02:32:47.942Z,93388.50
2022-09-28T02:35:17.453Z,93391.84
2022-09-28T02:37:45.828Z,93382.63
2022-09-28T02:40:34.183Z,93373.66
2022-09-28T02:43:24.603Z,93364.69
2022-09-28T02:46:13.033Z,93363.91
2022-09-28T02:49:17.471Z,93354.47
2022-09-28T02:52:02.357Z,93342.44
2022-09-28T02:55:09.583Z,93337.53
2022-09-28T02:57:57.453Z,93344.13
2022-09-28T03:00:24.807Z,93333.75
2022-09-28T03:02:57.557Z,93340.16
2022-09-28T03:05:36.194Z,93336.09
2022-09-28T03:08:21.051Z,93328.81
2022-09-28T03:11:03.071Z,93333.50
2022-09-28T03:13:31.750Z,93332.00
2022-09-28T03:16:14.291Z,93330.25
2022-09-28T03:18:44.073Z,93320.59
2022-09-28T03:21:14.789Z,93332.81
2022-09-28T03:23:42.751Z,93331.19
2022-09-28T03:26:13.802Z,93327.03
2022-09-28T03:28:40.763Z,93327.50
2022-09-28T03:31:11.318Z,93321.44
2022-09-28T03:33:37.940Z,93326.13
2022-09-28T03:36:04.664Z,93316.03
2022-09-28T03:38:31.428Z,93325.31
2022-09-28T03:41:00.454Z,93319.81
2022-09-28T03:43:32.276Z,93313.09
2022-09-28T03:46:02.446Z,93315.22
2022-09-28T03:48:33.833Z,93309.28
2022-09-28T03:51:03.858Z,93304.53
2022-09-28T03:53:31.101Z,93302.75
2022-09-28T03:56:05.594Z,93307.09
2022-09-28T03:58:32.985Z,93305.69
2022-09-28T04:01:17.649Z,93304.34
2022-09-28T04:03:46.923Z,93299.31
2022-09-28T04:06:13.937Z,93305.75
2022-09-28T04:08:40.573Z,93303.81
2022-09-28T04:11:08.272Z,93306.38
2022-09-28T04:13:34.989Z,93300.97
2022-09-28T04:16:02.019Z,93298.06
2022-09-28T04:18:33.028Z,93300.97
2022-09-28T04:21:11.965Z,93298.41
2022-09-28T04:23:48.788Z,93297.88
2022-09-28T04:26:24.064Z,93298.16
2022-09-28T04:29:09.748Z,93300.72
2022-09-28T04:31:45.764Z,93299.81
2022-09-28T04:34:17.217Z,93297.00
2022-09-28T04:36:45.203Z,93289.75
2022-09-28T04:39:14.201Z,93287.88
2022-09-28T04:41:43.293Z,93288.31
2022-09-28T04:44:10.093Z,93288.03
2022-09-28T04:46:36.717Z,93284.50
2022-09-28T04:49:24.788Z,93287.59
2022-09-28T04:52:18.209Z,93292.66
2022-09-28T04:54:48.379Z,93297.06
2022-09-28T04:57:16.096Z,93300.50
2022-09-28T04:59:42.672Z,93303.34
2022-09-28T05:02:09.349Z,93301.56
2022-09-28T05:05:05.646Z,93293.88
2022-09-28T05:07:47.721Z,93287.94
2022-09-28T05:10:14.472Z,93284.91
2022-09-28T05:12:41.095Z,93275.91
2022-09-28T05:15:07.997Z,93277.78
2022-09-28T05:17:34.639Z,93273.59
2022-09-28T05:20:20.424Z,93270.50
2022-09-28T05:22:46.988Z,93273.88
2022-09-28T05:25:13.608Z,93273.53
2022-09-28T05:28:03.304Z,93267.16
2022-09-28T05:30:49.863Z,93254.59
2022-09-28T05:33:34.850Z,93257.66
2022-09-28T05:36:12.667Z,93249.72
2022-09-28T05:38:39.328Z,93255.28
2022-09-28T05:41:06.972Z,93256.44
2022-09-28T05:43:33.833Z,93248.53
2022-09-28T05:46:03.281Z,93232.88
2022-09-28T05:48:30.459Z,93223.84
2022-09-28T05:50:58.761Z,93224.56
2022-09-28T05:53:26.493Z,93225.63
2022-09-28T05:55:53.144Z,93224.41
2022-09-28T05:58:19.744Z,93217.84
2022-09-28T06:00:46.390Z,93220.84
2022-09-28T06:03:14.358Z,93213.22
2022-09-28T06:05:41.143Z,93222.25
2022-09-28T06:08:12.513Z,93207.63
2022-09-28T06:10:43.646Z,93213.59
2022-09-28T06:13:11.939Z,93216.66
2022-09-28T06:15:42.503Z,93216.41
2022-09-28T06:18:14.784Z,93214.09
2022-09-28T06:20:54.524Z,93220.28
2022-09-28T06:23:30.656Z,93221.81
2022-09-28T06:25:59.228Z,93218.78
2022-09-28T06:28:26.907Z,93227.31
2022-09-28T06:30:54.075Z,93217.91
2022-09-28T06:33:21.891Z,93223.22
2022-09-28T06:35:48.465Z,93222.78
2022-09-28T06:38:15.125Z,93217.09
2022-09-28T06:40:41.792Z,93208.81
2022-09-28T06:43:14.977Z,93204.72
2022-09-28T06:46:17.282Z,93212.88
2022-09-28T06:48:50.102Z,93206.66
2022-09-28T06:51:30.936Z,93216.16
2022-09-28T06:54:02.443Z,93216.94
2022-09-28T06:56:47.519Z,93215.25
2022-09-28T06:59:14.247Z,93221.81
2022-09-28T07:01:40.948Z,93224.56
2022-09-28T07:04:31.404Z,93227.31
2022-09-28T07:07:16.344Z,93227.31
2022-09-28T07:10:01.574Z,93245.28
2022-09-28T07:12:48.858Z,93243.59
2022-09-28T07:15:33.644Z,93241.00
2022-09-28T07:18:03.753Z,93242.00
2022-09-28T07:20:40.277Z,93249.34
2022-09-28T07:23:18.608Z,93249.00
2022-09-28T07:26:08.360Z,93253.34
2022-09-28T07:29:00.180Z,93255.38
2022-09-28T07:31:54.923Z,93253.25
2022-09-28T07:34:58.933Z,93256.44
2022-09-28T07:37:58.120Z,93255.72
2022-09-28T07:40:47.457Z,93260.34
2022-09-28T07:43:20.361Z,93259.91
2022-09-28T07:45:49.841Z,93254.06
2022-09-28T07:48:17.519Z,93262.28
2022-09-28T07:50:55.091Z,93262.28
2022-09-28T07:53:34.411Z,93262.38
2022-09-28T07:56:17.206Z,93269.84
2022-09-28T07:59:22.103Z,93255.31
2022-09-28T08:02:13.450Z,93259.09
2022-09-28T08:04:40.944Z,93262.00
2022-09-28T08:07:11.826Z,93269.72
2022-09-28T08:09:39.610Z,93267.00
2022-09-28T08:12:19.644Z,93271.66
2022-09-28T08:14:57.438Z,93280.00
2022-09-28T08:17:47.232Z,93277.28
2022-09-28T08:20:52.912Z,93281.06
2022-09-28T08:23:20.328Z,93278.56
2022-09-28T08:25:51.367Z,93291.59
2022-09-28T08:28:18.877Z,93286.63
2022-09-28T08:30:48.366Z,93293.47
2022-09-28T08:33:34.480Z,93289.91
2022-09-28T08:36:20.607Z,93289.66
2022-09-28T08:39:10.083Z,93290.91
2022-09-28T08:42:05.082Z,93301.53
2022-09-28T08:44:58.512Z,93300.38
2022-09-28T08:48:38.165Z,93304.38
2022-09-28T08:51:19.107Z,93300.19
2022-09-28T08:54:08.090Z,93311.09
2022-09-28T08:56:53.037Z,93312.94
2022-09-28T08:59:26.696Z,93323.06
2022-09-28T09:02:03.562Z,93328.47
2022-09-28T09:04:33.751Z,93347.97
2022-09-28T09:07:35.631Z,93374.66
2022-09-28T09:10:22.323Z,93380.50
2022-09-28T09:13:03.132Z,93376.38
2022-09-28T09:15:55.166Z,93380.69
2022-09-28T09:19:10.772Z,93382.69
2022-09-28T09:21:56.003Z,93378.41
2022-09-28T09:24:38.263Z,93387.81
2022-09-28T09:27:24.999Z,93398.69
2022-09-28T09:30:11.436Z,93385.16
2022-09-28T09:32:47.856Z,93398.06
2022-09-28T09:35:51.951Z,93393.56
2022-09-28T09:38:39.799Z,93414.50
2022-09-28T09:41:46.582Z,93399.66
2022-09-28T09:44:35.006Z,93402.31
2022-09-28T09:47:24.438Z,93409.84
2022-09-28T09:49:58.375Z,93410.38
2022-09-28T09:55:29.687Z,93419.59
2022-09-28T09:58:29.055Z,93415.03
2022-09-28T10:01:13.548Z,93419.81
2022-09-28T10:04:21.019Z,93417.25
2022-09-28T10:06:51.811Z,93418.31
2022-09-28T10:09:27.949Z,93424.28
2022-09-28T10:12:01.583Z,93434.47
2022-09-28T10:14:47.932Z,93429.16
2022-09-28T10:20:39.897Z,93448.50
2022-09-28T10:23:25.707Z,93447.88
2022-09-28T10:25:56.693Z,93444.03
2022-09-28T10:28:34.122Z,93444.31
2022-09-28T10:31:37.173Z,93451.22
2022-09-28T10:34:17.014Z,93442.19
2022-09-28T10:37:03.339Z,93450.38
2022-09-28T10:39:53.329Z,93456.63
2022-09-28T10:42:28.222Z,93456.25
2022-09-28T10:45:13.791Z,93453.94
2022-09-28T10:47:44.656Z,93449.88
2022-09-28T10:50:27.811Z,93452.06
2022-09-28T10:53:22.913Z,93454.78
2022-09-28T10:56:20.160Z,93444.78
2022-09-28T10:58:48.893Z,93431.88
2022-09-28T11:01:34.617Z,93443.97
2022-09-28T11:04:07.564Z,93449.94
2022-09-28T11:06:41.793Z,93450.78
2022-09-28T11:09:22.653Z,93464.13
2022-09-28T11:11:49.833Z,93468.72
2022-09-28T11:14:23.316Z,93474.16
2022-09-28T11:17:14.688Z,93461.19
2022-09-28T11:19:42.201Z,93457.03
2022-09-28T11:22:52.122Z,93454.97
2022-09-28T11:25:25.998Z,93460.59
2022-09-28T11:27:52.723Z,93448.78
2022-09-28T11:30:44.347Z,93444.19
2022-09-28T11:33:30.658Z,93447.44
2022-09-28T11:36:38.694Z,93439.09
2022-09-28T11:39:27.728Z,93446.22
2022-09-28T11:42:40.692Z,93461.66
2022-09-28T11:45:34.266Z,93459.69
2022-09-28T11:48:04.915Z,93455.63
2022-09-28T11:50:39.897Z,93455.06
2022-09-28T11:53:18.660Z,93460.16
2022-09-28T11:56:17.324Z,93461.03
2022-09-28T11:58:48.962Z,93457.00
2022-09-28T12:01:30.077Z,93450.63
2022-09-28T12:04:31.990Z,93452.63
2022-09-28T12:07:03.472Z,93449.94
2022-09-28T12:09:59.977Z,93444.78
2022-09-28T12:13:01.175Z,93449.13
2022-09-28T12:16:23.007Z,93458.03
2022-09-28T12:21:30.321Z,93446.50
2022-09-28T12:24:03.671Z,93458.66
2022-09-28T12:26:43.949Z,93464.16
2022-09-28T12:29:18.566Z,93470.00
2022-09-28T12:32:23.964Z,93467.53
2022-09-28T12:34:50.839Z,93464.47
2022-09-28T12:37:40.096Z,93453.00
2022-09-28T12:40:18.399Z,93466.13
2022-09-28T12:43:12.543Z,93464.41
2022-09-28T12:46:14.178Z,93467.56
2022-09-28T12:49:43.675Z,93460.00
2022-09-28T12:51:52.811Z,93465.59
2022-09-28T12:54:55.036Z,93468.91
2022-09-28T12:57:39.673Z,93463.78
2022-09-28T13:00:15.890Z,93473.03
2022-09-28T13:02:42.411Z,93470.47
2022-09-28T13:05:50.531Z,93473.72
2022-09-28T13:08:46.286Z,93474.16
2022-09-28T13:11:31.934Z,93461.03
2022-09-28T13:14:30.806Z,93465.75
2022-09-28T13:17:26.364Z,93465.22
2022-09-28T13:19:52.845Z,93466.53
2022-09-28T13:22:44.183Z,93468.06
2022-09-28T13:25:17.914Z,93459.06
2022-09-28T13:27:57.417Z,93464.69
2022-09-28T13:30:28.280Z,93459.78
2022-09-28T13:33:01.492Z,93467.69
2022-09-28T13:35:28.888Z,93475.69
2022-09-28T13:38:17.413Z,93478.25
2022-09-28T13:41:06.092Z,93478.06
2022-09-28T13:43:54.782Z,93483.47
2022-09-28T13:46:44.555Z,93477.47
2022-09-28T13:49:32.739Z,93475.75
2022-09-28T13:52:05.104Z,93472.38
2022-09-28T13:54:42.001Z,93470.19
2022-09-28T13:57:20.368Z,93471.72
2022-09-28T14:00:02.876Z,93471.31
2022-09-28T14:02:46.739Z,93473.03
2022-09-28T14:05:34.259Z,93471.16
2022-09-28T14:08:10.764Z,93467.78
2022-09-28T14:10:51.649Z,93461.25
2022-09-28T14:13:56.992Z,93464.22
2022-09-28T14:16:31.223Z,93466.34
2022-09-28T14:19:02.363Z,93455.00
2022-09-28T14:22:06.690Z,93462.34
2022-09-28T14:24:38.997Z,93474.00
2022-09-28T14:27:17.478Z,93471.06
2022-09-28T14:29:44.465Z,93461.75
2022-09-28T14:32:11.016Z,93461.41
2022-09-28T14:34:47.629Z,93464.59
2022-09-28T14:37:55.119Z,93467.09
2022-09-28T14:40:49.630Z,93465.16
2022-09-28T14:43:26.141Z,93473.47
2022-09-28T14:46:07.820Z,93474.28
2022-09-28T14:49:01.767Z,93483.81
2022-09-28T14:51:31.030Z,93478.84
2022-09-28T14:54:12.724Z,93484.66
2022-09-28T14:57:08.733Z,93483.53
2022-09-28T14:59:43.533Z,93495.34
2022-09-28T15:02:36.205Z,93489.06
2022-09-28T15:05:18.340Z,93489.06
2022-09-28T15:07:52.383Z,93492.19
2022-09-28T15:10:27.307Z,93490.16
2022-09-28T15:12:57.110Z,93496.44
2022-09-28T15:15:31.696Z,93488.66
2022-09-28T15:18:18.596Z,93496.25
2022-09-28T15:20:49.926Z,93493.41
2022-09-28T15:23:36.362Z,93489.69
2022-09-28T15:26:07.067Z,93491.16
2022-09-28T15:28:35.440Z,93490.50
2022-09-28T15:31:04.695Z,93491.47
2022-09-28T15:33:52.929Z,93491.13
2022-09-28T15:36:28.789Z,93495.75
2022-09-28T15:39:06.844Z,93501.13
2022-09-28T15:41:34.096Z,93510.00
2022-09-28T15:44:12.603Z,93511.44
2022-09-28T15:46:47.786Z,93516.25
2022-09-28T15:49:26.256Z,93519.59
2022-09-28T15:51:56.066Z,93514.41
2022-09-28T15:54:42.751Z,93517.78
2022-09-28T15:57:30.412Z,93517.50
2022-09-28T15:59:57.087Z,93520.59
2022-09-28T16:02:27.025Z,93525.28
2022-09-28T16:04:59.052Z,93531.19
2022-09-28T16:07:30.104Z,93531.41
2022-09-28T16:10:00.991Z,93529.66
2022-09-28T16:12:36.784Z,93533.19
2022-09-28T16:15:26.970Z,93526.50
2022-09-28T16:18:04.240Z,93531.81
2022-09-28T16:20:32.386Z,93530.88
2022-09-28T16:23:06.020Z,93520.66
2022-09-28T16:25:37.112Z,93524.03
2022-09-28T16:28:04.903Z,93519.91
2022-09-28T16:30:33.517Z,93509.66
2022-09-28T16:33:06.626Z,93513.31
2022-09-28T16:35:50.903Z,93518.19
2022-09-28T16:38:19.171Z,93516.53
2022-09-28T16:40:50.621Z,93514.50
2022-09-28T16:43:20.297Z,93512.75
2022-09-28T16:45:46.954Z,93511.78
2022-09-28T16:48:16.111Z,93510.63
2022-09-28T16:50:42.656Z,93508.38
2022-09-28T16:53:33.327Z,93498.31
2022-09-28T16:56:00.774Z,93498.78
2022-09-28T16:58:28.784Z,93503.09
2022-09-28T17:00:55.515Z,93516.28
2022-09-28T17:03:23.504Z,93516.41
2022-09-28T17:05:51.332Z,93514.50
2022-09-28T17:08:21.605Z,93514.09
2022-09-28T17:13:45.763Z,93516.50
2022-09-28T17:16:18.431Z,93512.31
2022-09-28T17:18:45.922Z,93519.00
2022-09-28T17:21:21.576Z,93513.56
2022-09-28T17:23:49.843Z,93514.41
2022-09-28T17:26:19.578Z,93514.13
2022-09-28T17:28:46.445Z,93513.31
2022-09-28T17:31:16.057Z,93518.28
2022-09-28T17:33:43.012Z,93510.56
2022-09-28T17:36:13.963Z,93511.22
2022-09-28T17:38:42.510Z,93508.66
2022-09-28T17:41:20.935Z,93516.06
2022-09-28T17:43:48.048Z,93518.63
2022-09-28T17:46:22.638Z,93527.41
2022-09-28T17:48:49.741Z,93522.13
2022-09-28T17:51:16.376Z,93525.34
2022-09-28T17:53:43.009Z,93527.59
2022-09-28T17:56:09.875Z,93529.63
2022-09-28T17:58:36.673Z,93537.03
2022-09-28T18:01:03.228Z,93535.75
2022-09-28T18:03:29.801Z,93530.63
2022-09-28T18:06:04.379Z,93533.38
2022-09-28T18:08:31.251Z,93535.28
2022-09-28T18:10:57.871Z,93536.69
2022-09-28T18:13:25.077Z,93535.59
2022-09-28T18:15:52.913Z,93545.22
2022-09-28T18:18:20.057Z,93548.56
2022-09-28T18:20:46.617Z,93554.66
2022-09-28T18:23:13.482Z,93560.41
2022-09-28T18:25:44.710Z,93559.97
2022-09-28T18:28:14.577Z,93567.19
2022-09-28T18:30:43.484Z,93573.13
2022-09-28T18:33:11.169Z,93573.75
2022-09-28T18:35:38.243Z,93577.75
2022-09-28T18:38:05.826Z,93585.78
2022-09-28T18:40:34.049Z,93581.94
2022-09-28T18:43:00.721Z,93590.44
2022-09-28T18:45:27.308Z,93591.25
2022-09-28T18:47:53.834Z,93593.66
2022-09-28T18:50:20.372Z,93602.13
2022-09-28T18:52:47.374Z,93608.25
2022-09-28T18:55:14.073Z,93597.34
2022-09-28T18:57:42.272Z,93600.53
2022-09-28T19:00:11.884Z,93608.72
2022-09-28T19:02:38.762Z,93608.41
2022-09-28T19:05:06.226Z,93614.19
2022-09-28T19:07:33.745Z,93615.16
2022-09-28T19:10:00.322Z,93614.66
2022-09-28T19:12:26.947Z,93618.19
2022-09-28T19:14:53.599Z,93626.38
2022-09-28T19:17:20.193Z,93628.00
2022-09-28T19:19:46.769Z,93632.16
2022-09-28T19:22:13.397Z,93633.44
2022-09-28T19:24:42.240Z,93643.84
2022-09-28T19:27:08.781Z,93633.44
2022-09-28T19:29:35.325Z,93632.78
2022-09-28T19:32:02.214Z,93641.59
2022-09-28T19:34:30.152Z,93634.38
2022-09-28T19:36:57.190Z,93638.25
2022-09-28T19:39:23.788Z,93642.09
2022-09-28T19:41:51.332Z,93645.31
2022-09-28T19:44:25.230Z,93651.09
2022-09-28T19:46:55.250Z,93653.31
2022-09-28T19:49:23.661Z,93655.06
2022-09-28T19:52:12.283Z,93659.25
2022-09-28T19:54:39.718Z,93667.88
2022-09-28T19:57:08.365Z,93675.75
2022-09-28T19:59:36.892Z,93672.72
2022-09-28T20:02:05.246Z,93670.47
2022-09-28T20:04:31.820Z,93672.38
2022-09-28T20:06:58.388Z,93674.16
2022-09-28T20:09:25.010Z,93673.84
2022-09-28T20:11:51.918Z,93674.81
2022-09-28T20:14:18.932Z,93676.56
2022-09-28T20:16:46.303Z,93676.09
2022-09-28T20:19:13.016Z,93681.53
2022-09-28T20:21:39.547Z,93680.28
2022-09-28T20:24:06.216Z,93682.50
2022-09-28T20:26:37.628Z,93680.75
2022-09-28T20:29:06.669Z,93685.06
2022-09-28T20:31:38.007Z,93682.03
2022-09-28T20:34:06.427Z,93682.66
2022-09-28T20:36:33.588Z,93681.84
2022-09-28T20:39:03.990Z,93682.16
2022-09-28T20:41:36.493Z,93684.91
2022-09-28T20:44:06.194Z,93685.06
2022-09-28T20:46:34.634Z,93690.19
2022-09-28T20:49:01.598Z,93684.25
2022-09-28T20:51:28.207Z,93692.28
2022-09-28T20:53:57.189Z,93694.50
2022-09-28T20:56:23.763Z,93703.31
2022-09-28T20:58:51.329Z,93702.03
2022-09-28T21:01:20.743Z,93692.25
2022-09-28T21:03:55.861Z,93696.91
2022-09-28T21:06:25.212Z,93696.09
2022-09-28T21:08:52.612Z,93694.03
2022-09-28T21:11:24.200Z,93693.06
2022-09-28T21:13:55.765Z,93694.03
2022-09-28T21:16:22.245Z,93697.09
2022-09-28T21:18:48.788Z,93692.72
2022-09-28T21:21:17.770Z,93692.44
2022-09-28T21:23:44.902Z,93692.13
2022-09-28T21:26:12.775Z,93694.03
2022-09-28T21:28:39.808Z,93701.41
2022-09-28T21:31:09.531Z,93694.69
2022-09-28T21:33:36.558Z,93695.81
2022-09-28T21:36:05.208Z,93695.47
2022-09-28T21:38:32.378Z,93687.47
2022-09-28T21:41:00.156Z,93688.59
2022-09-28T21:43:28.113Z,93688.41
2022-09-28T21:45:55.835Z,93684.25
2022-09-28T21:48:26.019Z,93683.78
2022-09-28T21:51:00.801Z,93681.22
2022-09-28T21:53:30.153Z,93685.38
2022-09-28T21:55:58.041Z,93683.63
2022-09-28T21:58:27.628Z,93687.78
2022-09-28T22:01:01.319Z,93678.63
2022-09-28T22:03:29.057Z,93687.94
2022-09-28T22:05:55.597Z,93685.19
2022-09-28T22:08:22.457Z,93686.66
2022-09-28T22:11:07.803Z,93682.94
2022-09-28T22:13:46.609Z,93682.28
2022-09-28T22:16:15.474Z,93680.06
2022-09-28T22:18:42.415Z,93689.88
2022-09-28T22:21:16.723Z,93689.88
2022-09-28T22:23:43.465Z,93691.44
2022-09-28T22:26:20.046Z,93690.34
2022-09-28T22:28:49.430Z,93692.25
2022-09-28T22:31:17.925Z,93691.44
2022-09-28T22:33:44.599Z,93702.66
2022-09-28T22:36:11.433Z,93697.53
2022-09-28T22:38:39.666Z,93700.44
2022-09-28T22:41:06.322Z,93696.25
2022-09-28T22:43:33.150Z,93704.41
2022-09-28T22:46:11.427Z,93698.63
2022-09-28T22:48:38.478Z,93694.78
2022-09-28T22:51:06.756Z,93704.41
2022-09-28T22:53:34.551Z,93692.91
2022-09-28T22:56:04.850Z,93693.53
2022-09-28T22:58:35.754Z,93686.66
2022-09-28T23:01:17.264Z,93682.81
2022-09-28T23:03:44.773Z,93678.78
2022-09-28T23:06:13.497Z,93680.72
2022-09-28T23:08:40.110Z,93677.84
2022-09-28T23:11:07.016Z,93680.72
2022-09-28T23:13:35.049Z,93680.88
2022-09-28T23:16:04.185Z,93668.06
2022-09-28T23:18:33.434Z,93676.56
2022-09-28T23:21:02.161Z,93678.31
2022-09-28T23:23:28.790Z,93676.09
2022-09-28T23:25:55.711Z,93669.97
2022-09-28T23:28:24.184Z,93671.91
2022-09-28T23:30:51.263Z,93668.53
2022-09-28T23:33:20.002Z,93667.59
2022-09-28T23:35:49.693Z,93672.38
2022-09-28T23:38:18.210Z,93674.16
2022-09-28T23:40:46.374Z,93672.53
2022-09-28T23:43:13.555Z,93669.69
2022-09-28T23:45:42.623Z,93670.63
2022-09-28T23:48:09.239Z,93671.59
2022-09-28T23:50:35.943Z,93671.44
2022-09-28T23:53:02.487Z,93664.84
2022-09-28T23:55:29.285Z,93673.69
2022-09-28T23:57:56.691Z,93663.09
